Rhinelander, WI

12:18 PM CST on December 19, 2014 (GMT -0600)
Rhinelander-Oneida County | Change Station
CLOSE
Current Station
Airport
Location: Rhinelander,
Elevation: 1624 ft
Nearby Weather Stations

Elev 1624 ft 45.63 °N, 89.48 °W | Updated 25 minutes ago

Partly Cloudy
Partly Cloudy
19 °F
Feels Like 19 °F
N
0
Wind Variable Wind from North

Today
High -- | Low -- °F
--% Chance of Precip.
Yesterday
High -- | Low -- °F
Precip. -- in
7:34 AM 4:15 PM
Waning Crescent, 7% visible
Pressure 30.33 in
Visibility 7.0 miles
Clouds Mostly Cloudy 1000 ft
Dew Point 17 °F
Humidity 92%
Rainfall 0.00 in
Snow Depth Not available.
UV 1 out of 12
Pollen .10 out of 12
Air Quality Not available.
Flu Activity Not available.
METAR KRHI 191753Z AUTO 00000KT 7SM BKN010 M07/M08 A3022 RMK AO2 SLP269 T10721083 11072 21167 58012

More Conditions Fewer Conditions

Pressure 30.33 in
Visibility 7.0 miles
Clouds Mostly Cloudy 1000 ft
Dew Point 17 °F
Humidity 92%
Rainfall 0.00 in
Snow Depth Not available.
UV 1 out of 12
Pollen .10 out of 12
Air Quality Not available.
Flu Activity Not available.
METAR KRHI 191753Z AUTO 00000KT 7SM BKN010 M07/M08 A3022 RMK AO2 SLP269 T10721083 11072 21167 58012

More Conditions Fewer Conditions

10-Day Weather Forecast

Almanac

Astronomy

Dec. 19, 2014 Rise Set
Actual Time
Civil Twilight
Nautical Twilight
Astronomical Twilight
Moon
Length of Visible Light
Length of Day
Tomorrow will be .
, % of the Moon is Illuminated

Today's Extremes

State Highs State Lows

Community

WunderPhotos

Upload Photos

1,779,015 photos uploaded!

WunderBlogs® & News

Nearby

Air Quality

  Air Quality AQ Index Pollutant
Not available.

Snow Depth

Station Depth Elevation

Earthquake Activity

City Distance Mag. Time & Date
Minimum magnitude displayed is 2.5.

Coastal Water Temperatures

Place Temperature

Nearby Weather Stations